sensor_id;sensor_type;location;lat;lon;timestamp;temperature;humidity
57108;DHT22;42987;52.916;6.542;2023-02-07T00:00:52;1.80;99.90
57108;DHT22;42987;52.916;6.542;2023-02-07T00:03:17;1.80;99.90
57108;DHT22;42987;52.916;6.542;2023-02-07T00:05:43;1.80;99.90
57108;DHT22;42987;52.916;6.542;2023-02-07T00:08:09;1.80;99.90
57108;DHT22;42987;52.916;6.542;2023-02-07T00:10:35;1.80;99.90
57108;DHT22;42987;52.916;6.542;2023-02-07T00:13:00;1.80;99.90
57108;DHT22;42987;52.916;6.542;2023-02-07T00:15:26;1.80;99.90
57108;DHT22;42987;52.916;6.542;2023-02-07T00:17:52;1.80;99.90
57108;DHT22;42987;52.916;6.542;2023-02-07T00:20:24;1.70;99.90
57108;DHT22;42987;52.916;6.542;2023-02-07T00:22:49;1.70;99.90
57108;DHT22;42987;52.916;6.542;2023-02-07T00:25:17;1.80;99.90
57108;DHT22;42987;52.916;6.542;2023-02-07T00:27:43;1.70;99.90
57108;DHT22;42987;52.916;6.542;2023-02-07T00:30:12;1.80;99.90
57108;DHT22;42987;52.916;6.542;2023-02-07T00:32:38;1.80;99.90
57108;DHT22;42987;52.916;6.542;2023-02-07T00:35:04;1.80;99.90
57108;DHT22;42987;52.916;6.542;2023-02-07T00:37:30;1.70;99.90
57108;DHT22;42987;52.916;6.542;2023-02-07T00:39:56;1.70;99.90
57108;DHT22;42987;52.916;6.542;2023-02-07T00:42:22;1.70;99.90
57108;DHT22;42987;52.916;6.542;2023-02-07T00:44:47;1.70;99.90
57108;DHT22;42987;52.916;6.542;2023-02-07T00:47:13;1.70;99.90
57108;DHT22;42987;52.916;6.542;2023-02-07T00:49:39;1.70;99.90
57108;DHT22;42987;52.916;6.542;2023-02-07T00:52:05;1.70;99.90
57108;DHT22;42987;52.916;6.542;2023-02-07T00:54:30;1.80;99.90
57108;DHT22;42987;52.916;6.542;2023-02-07T00:56:56;1.70;99.90
57108;DHT22;42987;52.916;6.542;2023-02-07T00:59:22;1.60;99.90
57108;DHT22;42987;52.916;6.542;2023-02-07T01:01:47;1.70;99.90
57108;DHT22;42987;52.916;6.542;2023-02-07T01:04:13;1.70;99.90
57108;DHT22;42987;52.916;6.542;2023-02-07T01:06:39;1.70;99.90
57108;DHT22;42987;52.916;6.542;2023-02-07T01:09:05;1.70;99.90
57108;DHT22;42987;52.916;6.542;2023-02-07T01:11:31;1.70;99.90
57108;DHT22;42987;52.916;6.542;2023-02-07T01:13:59;1.70;99.90
57108;DHT22;42987;52.916;6.542;2023-02-07T01:16:31;1.70;99.90
57108;DHT22;42987;52.916;6.542;2023-02-07T01:18:59;1.70;99.90
57108;DHT22;42987;52.916;6.542;2023-02-07T01:21:26;1.60;99.90
57108;DHT22;42987;52.916;6.542;2023-02-07T01:23:53;1.70;99.90
57108;DHT22;42987;52.916;6.542;2023-02-07T01:26:26;1.60;99.90
57108;DHT22;42987;52.916;6.542;2023-02-07T01:28:53;1.60;99.90
57108;DHT22;42987;52.916;6.542;2023-02-07T01:31:20;1.50;99.90
57108;DHT22;42987;52.916;6.542;2023-02-07T01:33:47;1.50;99.90
57108;DHT22;42987;52.916;6.542;2023-02-07T01:36:15;1.40;99.90
57108;DHT22;42987;52.916;6.542;2023-02-07T01:38:41;1.40;99.90
57108;DHT22;42987;52.916;6.542;2023-02-07T01:41:08;1.40;99.90
57108;DHT22;42987;52.916;6.542;2023-02-07T01:43:34;1.30;99.90
57108;DHT22;42987;52.916;6.542;2023-02-07T01:46:17;1.30;99.90
57108;DHT22;42987;52.916;6.542;2023-02-07T01:48:42;1.20;99.90
57108;DHT22;42987;52.916;6.542;2023-02-07T01:51:08;1.20;99.90
57108;DHT22;42987;52.916;6.542;2023-02-07T01:53:36;1.10;99.90
57108;DHT22;42987;52.916;6.542;2023-02-07T01:56:04;1.10;99.90
57108;DHT22;42987;52.916;6.542;2023-02-07T01:58:37;1.00;99.90
57108;DHT22;42987;52.916;6.542;2023-02-07T02:01:09;1.00;99.90
57108;DHT22;42987;52.916;6.542;2023-02-07T02:03:38;1.00;99.90
57108;DHT22;42987;52.916;6.542;2023-02-07T02:06:06;0.90;99.90
57108;DHT22;42987;52.916;6.542;2023-02-07T02:08:32;0.90;99.90
57108;DHT22;42987;52.916;6.542;2023-02-07T02:13:39;0.80;99.90
57108;DHT22;42987;52.916;6.542;2023-02-07T02:16:19;0.80;99.90
57108;DHT22;42987;52.916;6.542;2023-02-07T02:24:44;0.60;99.90
57108;DHT22;42987;52.916;6.542;2023-02-07T02:30:31;0.50;99.90
57108;DHT22;42987;52.916;6.542;2023-02-07T02:39:20;0.40;99.90
57108;DHT22;42987;52.916;6.542;2023-02-07T02:41:57;0.30;99.90
57108;DHT22;42987;52.916;6.542;2023-02-07T02:44:37;0.20;99.90
57108;DHT22;42987;52.916;6.542;2023-02-07T02:47:04;0.20;99.90
57108;DHT22;42987;52.916;6.542;2023-02-07T02:49:32;0.10;99.90
57108;DHT22;42987;52.916;6.542;2023-02-07T02:51:59;0.20;99.90
57108;DHT22;42987;52.916;6.542;2023-02-07T02:54:31;0.10;99.90
57108;DHT22;42987;52.916;6.542;2023-02-07T02:57:34;0.00;99.90
57108;DHT22;42987;52.916;6.542;2023-02-07T03:02:49;0.00;99.90
57108;DHT22;42987;52.916;6.542;2023-02-07T03:05:45;0.00;99.90
57108;DHT22;42987;52.916;6.542;2023-02-07T03:08:24;-0.10;99.90
57108;DHT22;42987;52.916;6.542;2023-02-07T03:11:06;-0.20;99.90
57108;DHT22;42987;52.916;6.542;2023-02-07T03:19:33;-0.30;99.90
57108;DHT22;42987;52.916;6.542;2023-02-07T03:22:07;-0.20;99.90
57108;DHT22;42987;52.916;6.542;2023-02-07T03:24:44;-0.30;99.90
57108;DHT22;42987;52.916;6.542;2023-02-07T03:27:14;-0.30;99.90
57108;DHT22;42987;52.916;6.542;2023-02-07T03:29:44;-0.30;99.90
57108;DHT22;42987;52.916;6.542;2023-02-07T03:32:12;-0.40;99.90
57108;DHT22;42987;52.916;6.542;2023-02-07T03:37:28;-0.40;99.90
57108;DHT22;42987;52.916;6.542;2023-02-07T03:39:56;-0.40;99.90
57108;DHT22;42987;52.916;6.542;2023-02-07T03:42:32;-0.40;99.90
57108;DHT22;42987;52.916;6.542;2023-02-07T03:45:00;-0.50;99.90
57108;DHT22;42987;52.916;6.542;2023-02-07T03:47:26;-0.50;99.90
57108;DHT22;42987;52.916;6.542;2023-02-07T03:49:53;-0.40;99.90
57108;DHT22;42987;52.916;6.542;2023-02-07T03:52:18;-0.40;99.90
57108;DHT22;42987;52.916;6.542;2023-02-07T03:54:44;-0.40;99.90
57108;DHT22;42987;52.916;6.542;2023-02-07T03:57:10;-0.50;99.90
57108;DHT22;42987;52.916;6.542;2023-02-07T03:59:36;-0.50;99.90
57108;DHT22;42987;52.916;6.542;2023-02-07T04:02:02;-0.50;99.90
57108;DHT22;42987;52.916;6.542;2023-02-07T04:04:28;-0.50;99.90
57108;DHT22;42987;52.916;6.542;2023-02-07T04:06:54;-0.50;99.90
57108;DHT22;42987;52.916;6.542;2023-02-07T04:09:20;-0.50;99.90
57108;DHT22;42987;52.916;6.542;2023-02-07T04:11:50;-0.50;99.90
57108;DHT22;42987;52.916;6.542;2023-02-07T04:14:16;-0.50;99.90
57108;DHT22;42987;52.916;6.542;2023-02-07T04:16:45;-0.60;99.90
57108;DHT22;42987;52.916;6.542;2023-02-07T04:19:11;-0.60;99.90
57108;DHT22;42987;52.916;6.542;2023-02-07T04:21:37;-0.50;99.90
57108;DHT22;42987;52.916;6.542;2023-02-07T04:24:03;-0.60;99.90
57108;DHT22;42987;52.916;6.542;2023-02-07T04:26:29;-0.60;99.90
57108;DHT22;42987;52.916;6.542;2023-02-07T04:28:57;-0.70;99.90
57108;DHT22;42987;52.916;6.542;2023-02-07T04:31:23;-0.70;99.90
57108;DHT22;42987;52.916;6.542;2023-02-07T04:33:49;-0.70;99.90
57108;DHT22;42987;52.916;6.542;2023-02-07T04:36:18;-0.70;99.90
57108;DHT22;42987;52.916;6.542;2023-02-07T04:38:43;-0.70;99.90
57108;DHT22;42987;52.916;6.542;2023-02-07T04:41:09;-0.70;99.90
57108;DHT22;42987;52.916;6.542;2023-02-07T04:43:36;-0.70;99.90
57108;DHT22;42987;52.916;6.542;2023-02-07T04:46:03;-0.80;99.90
57108;DHT22;42987;52.916;6.542;2023-02-07T04:48:29;-0.80;99.90
57108;DHT22;42987;52.916;6.542;2023-02-07T04:50:55;-0.80;99.90
57108;DHT22;42987;52.916;6.542;2023-02-07T04:53:21;-0.80;99.90
57108;DHT22;42987;52.916;6.542;2023-02-07T04:55:52;-0.80;99.90
57108;DHT22;42987;52.916;6.542;2023-02-07T04:58:19;-0.80;99.90
57108;DHT22;42987;52.916;6.542;2023-02-07T05:00:45;-0.90;99.90
57108;DHT22;42987;52.916;6.542;2023-02-07T05:03:11;-0.90;99.90
57108;DHT22;42987;52.916;6.542;2023-02-07T05:05:41;-1.00;99.90
57108;DHT22;42987;52.916;6.542;2023-02-07T05:08:07;-1.00;99.90
57108;DHT22;42987;52.916;6.542;2023-02-07T05:10:34;-1.00;99.90
57108;DHT22;42987;52.916;6.542;2023-02-07T05:13:00;-1.10;99.90
57108;DHT22;42987;52.916;6.542;2023-02-07T05:15:26;-1.10;99.90
57108;DHT22;42987;52.916;6.542;2023-02-07T05:17:52;-1.20;99.90
57108;DHT22;42987;52.916;6.542;2023-02-07T05:20:19;-1.10;99.90
57108;DHT22;42987;52.916;6.542;2023-02-07T05:22:44;-1.10;99.90
57108;DHT22;42987;52.916;6.542;2023-02-07T05:25:10;-1.20;99.90
57108;DHT22;42987;52.916;6.542;2023-02-07T05:27:36;-1.20;99.90
57108;DHT22;42987;52.916;6.542;2023-02-07T05:30:04;-1.20;99.90
57108;DHT22;42987;52.916;6.542;2023-02-07T05:32:30;-1.20;99.90
57108;DHT22;42987;52.916;6.542;2023-02-07T05:35:15;-1.20;99.90
57108;DHT22;42987;52.916;6.542;2023-02-07T05:37:40;-1.30;99.90
57108;DHT22;42987;52.916;6.542;2023-02-07T05:40:07;-1.30;99.90
57108;DHT22;42987;52.916;6.542;2023-02-07T05:42:33;-1.30;99.90
57108;DHT22;42987;52.916;6.542;2023-02-07T05:44:58;-1.30;99.90
57108;DHT22;42987;52.916;6.542;2023-02-07T05:47:24;-1.40;99.90
57108;DHT22;42987;52.916;6.542;2023-02-07T05:49:50;-1.40;99.90
57108;DHT22;42987;52.916;6.542;2023-02-07T05:52:16;-1.40;99.90
57108;DHT22;42987;52.916;6.542;2023-02-07T05:54:41;-1.40;99.90
57108;DHT22;42987;52.916;6.542;2023-02-07T05:57:07;-1.40;99.90
57108;DHT22;42987;52.916;6.542;2023-02-07T05:59:33;-1.40;99.90
57108;DHT22;42987;52.916;6.542;2023-02-07T06:01:59;-1.30;99.90
57108;DHT22;42987;52.916;6.542;2023-02-07T06:04:25;-1.30;99.90
57108;DHT22;42987;52.916;6.542;2023-02-07T06:06:51;-1.40;99.90
57108;DHT22;42987;52.916;6.542;2023-02-07T06:09:16;-1.40;99.90
57108;DHT22;42987;52.916;6.542;2023-02-07T06:11:42;-1.40;99.90
57108;DHT22;42987;52.916;6.542;2023-02-07T06:14:08;-1.40;99.90
57108;DHT22;42987;52.916;6.542;2023-02-07T06:16:34;-1.40;99.90
57108;DHT22;42987;52.916;6.542;2023-02-07T06:19:00;-1.40;99.90
57108;DHT22;42987;52.916;6.542;2023-02-07T06:21:26;-1.30;99.90
57108;DHT22;42987;52.916;6.542;2023-02-07T06:23:51;-1.40;99.90
57108;DHT22;42987;52.916;6.542;2023-02-07T06:26:17;-1.40;99.90
57108;DHT22;42987;52.916;6.542;2023-02-07T06:28:43;-1.40;99.90
57108;DHT22;42987;52.916;6.542;2023-02-07T06:31:09;-1.40;99.90
57108;DHT22;42987;52.916;6.542;2023-02-07T06:33:35;-1.40;99.90
57108;DHT22;42987;52.916;6.542;2023-02-07T06:36:01;-1.50;99.90
57108;DHT22;42987;52.916;6.542;2023-02-07T06:38:26;-1.50;99.90
57108;DHT22;42987;52.916;6.542;2023-02-07T06:40:52;-1.50;99.90
57108;DHT22;42987;52.916;6.542;2023-02-07T06:43:18;-1.50;99.90
57108;DHT22;42987;52.916;6.542;2023-02-07T06:45:44;-1.50;99.90
57108;DHT22;42987;52.916;6.542;2023-02-07T06:48:10;-1.50;99.90
57108;DHT22;42987;52.916;6.542;2023-02-07T06:50:36;-1.50;99.90
57108;DHT22;42987;52.916;6.542;2023-02-07T06:53:02;-1.50;99.90
57108;DHT22;42987;52.916;6.542;2023-02-07T06:55:34;-1.50;99.90
57108;DHT22;42987;52.916;6.542;2023-02-07T06:58:00;-1.50;99.90
57108;DHT22;42987;52.916;6.542;2023-02-07T07:00:26;-1.60;99.90
57108;DHT22;42987;52.916;6.542;2023-02-07T07:02:52;-1.50;99.90
57108;DHT22;42987;52.916;6.542;2023-02-07T07:05:17;-1.50;99.90
57108;DHT22;42987;52.916;6.542;2023-02-07T07:07:43;-1.60;99.90
57108;DHT22;42987;52.916;6.542;2023-02-07T07:10:10;-1.60;99.90
57108;DHT22;42987;52.916;6.542;2023-02-07T07:12:35;-1.60;99.90
57108;DHT22;42987;52.916;6.542;2023-02-07T07:15:01;-1.60;99.90
57108;DHT22;42987;52.916;6.542;2023-02-07T07:17:27;-1.60;99.90
57108;DHT22;42987;52.916;6.542;2023-02-07T07:19:53;-1.50;99.90
57108;DHT22;42987;52.916;6.542;2023-02-07T07:22:19;-1.60;99.90
57108;DHT22;42987;52.916;6.542;2023-02-07T07:24:47;-1.60;99.90
57108;DHT22;42987;52.916;6.542;2023-02-07T07:27:14;-1.60;99.90
57108;DHT22;42987;52.916;6.542;2023-02-07T07:29:44;-1.40;99.90
57108;DHT22;42987;52.916;6.542;2023-02-07T07:32:09;-1.40;99.90
57108;DHT22;42987;52.916;6.542;2023-02-07T07:34:41;-1.30;99.90
57108;DHT22;42987;52.916;6.542;2023-02-07T07:37:07;-1.30;99.90
57108;DHT22;42987;52.916;6.542;2023-02-07T07:39:33;-1.20;99.90
57108;DHT22;42987;52.916;6.542;2023-02-07T07:41:59;-1.20;99.90
57108;DHT22;42987;52.916;6.542;2023-02-07T07:44:24;-1.10;99.90
57108;DHT22;42987;52.916;6.542;2023-02-07T07:46:50;-1.10;99.90
57108;DHT22;42987;52.916;6.542;2023-02-07T07:49:17;-1.00;99.90
57108;DHT22;42987;52.916;6.542;2023-02-07T07:51:43;-1.00;99.90
57108;DHT22;42987;52.916;6.542;2023-02-07T07:54:09;-1.00;99.90
57108;DHT22;42987;52.916;6.542;2023-02-07T07:56:37;-1.00;99.90
57108;DHT22;42987;52.916;6.542;2023-02-07T07:59:03;-0.90;99.90
57108;DHT22;42987;52.916;6.542;2023-02-07T08:01:28;-0.90;99.90
57108;DHT22;42987;52.916;6.542;2023-02-07T08:03:54;-0.90;99.90
57108;DHT22;42987;52.916;6.542;2023-02-07T08:06:20;-0.90;99.90
57108;DHT22;42987;52.916;6.542;2023-02-07T08:08:46;-0.90;99.90
57108;DHT22;42987;52.916;6.542;2023-02-07T08:11:12;-0.80;99.90
57108;DHT22;42987;52.916;6.542;2023-02-07T08:13:37;-0.90;99.90
57108;DHT22;42987;52.916;6.542;2023-02-07T08:16:05;-0.80;99.90
57108;DHT22;42987;52.916;6.542;2023-02-07T08:18:36;-0.80;99.90
57108;DHT22;42987;52.916;6.542;2023-02-07T08:21:02;-0.70;99.90
57108;DHT22;42987;52.916;6.542;2023-02-07T08:23:28;-0.70;99.90
57108;DHT22;42987;52.916;6.542;2023-02-07T08:25:54;-0.70;99.90
57108;DHT22;42987;52.916;6.542;2023-02-07T08:28:20;-0.70;99.90
57108;DHT22;42987;52.916;6.542;2023-02-07T08:30:47;-0.60;99.90
57108;DHT22;42987;52.916;6.542;2023-02-07T08:33:13;-0.60;99.90
57108;DHT22;42987;52.916;6.542;2023-02-07T08:35:40;-0.60;99.90
57108;DHT22;42987;52.916;6.542;2023-02-07T08:38:06;-0.60;99.90
57108;DHT22;42987;52.916;6.542;2023-02-07T08:40:32;-0.50;99.90
57108;DHT22;42987;52.916;6.542;2023-02-07T08:42:59;-0.50;99.90
57108;DHT22;42987;52.916;6.542;2023-02-07T08:45:24;-0.50;99.90
57108;DHT22;42987;52.916;6.542;2023-02-07T08:47:50;-0.40;99.90
57108;DHT22;42987;52.916;6.542;2023-02-07T08:50:16;-0.40;99.90
57108;DHT22;42987;52.916;6.542;2023-02-07T08:52:43;-0.30;99.90
57108;DHT22;42987;52.916;6.542;2023-02-07T08:55:10;-0.30;99.90
57108;DHT22;42987;52.916;6.542;2023-02-07T08:57:36;-0.20;99.90
57108;DHT22;42987;52.916;6.542;2023-02-07T09:00:04;-0.20;99.90
57108;DHT22;42987;52.916;6.542;2023-02-07T09:02:31;-0.10;99.90
57108;DHT22;42987;52.916;6.542;2023-02-07T09:04:57;-0.10;99.90
57108;DHT22;42987;52.916;6.542;2023-02-07T09:07:23;0.00;99.90
57108;DHT22;42987;52.916;6.542;2023-02-07T09:09:49;0.10;99.90
57108;DHT22;42987;52.916;6.542;2023-02-07T09:12:15;0.10;99.90
57108;DHT22;42987;52.916;6.542;2023-02-07T09:14:40;0.00;99.90
57108;DHT22;42987;52.916;6.542;2023-02-07T09:17:07;0.10;99.90
57108;DHT22;42987;52.916;6.542;2023-02-07T09:19:34;0.20;99.90
57108;DHT22;42987;52.916;6.542;2023-02-07T09:22:01;0.20;99.90
57108;DHT22;42987;52.916;6.542;2023-02-07T09:24:27;0.30;99.90
57108;DHT22;42987;52.916;6.542;2023-02-07T09:26:53;0.30;99.90
57108;DHT22;42987;52.916;6.542;2023-02-07T09:29:19;0.40;99.90
57108;DHT22;42987;52.916;6.542;2023-02-07T09:31:45;0.40;99.90
57108;DHT22;42987;52.916;6.542;2023-02-07T09:34:11;0.50;99.90
57108;DHT22;42987;52.916;6.542;2023-02-07T09:36:37;0.50;99.90
57108;DHT22;42987;52.916;6.542;2023-02-07T09:39:04;0.60;99.90
57108;DHT22;42987;52.916;6.542;2023-02-07T09:42:19;0.60;99.90
57108;DHT22;42987;52.916;6.542;2023-02-07T09:44:57;0.60;99.90
57108;DHT22;42987;52.916;6.542;2023-02-07T09:47:25;0.70;99.90
57108;DHT22;42987;52.916;6.542;2023-02-07T09:52:34;0.70;99.90
57108;DHT22;42987;52.916;6.542;2023-02-07T09:55:02;0.80;99.90
57108;DHT22;42987;52.916;6.542;2023-02-07T09:57:37;0.80;99.90
57108;DHT22;42987;52.916;6.542;2023-02-07T10:00:28;0.90;99.90
57108;DHT22;42987;52.916;6.542;2023-02-07T10:02:57;1.00;99.90
57108;DHT22;42987;52.916;6.542;2023-02-07T10:08:15;1.10;99.90
57108;DHT22;42987;52.916;6.542;2023-02-07T10:11:07;1.10;99.90
57108;DHT22;42987;52.916;6.542;2023-02-07T10:14:08;1.20;99.90
57108;DHT22;42987;52.916;6.542;2023-02-07T10:16:46;1.20;99.90
57108;DHT22;42987;52.916;6.542;2023-02-07T10:27:00;1.40;99.90
57108;DHT22;42987;52.916;6.542;2023-02-07T10:32:11;1.50;99.90
57108;DHT22;42987;52.916;6.542;2023-02-07T10:34:45;1.60;99.90
57108;DHT22;42987;52.916;6.542;2023-02-07T10:37:27;1.70;99.90
57108;DHT22;42987;52.916;6.542;2023-02-07T10:40:14;1.70;99.90
57108;DHT22;42987;52.916;6.542;2023-02-07T10:42:42;1.80;99.90
57108;DHT22;42987;52.916;6.542;2023-02-07T10:45:13;1.80;99.90
57108;DHT22;42987;52.916;6.542;2023-02-07T10:47:40;1.90;99.90
57108;DHT22;42987;52.916;6.542;2023-02-07T10:50:14;1.90;99.90
57108;DHT22;42987;52.916;6.542;2023-02-07T10:52:46;2.00;99.90
57108;DHT22;42987;52.916;6.542;2023-02-07T10:55:17;2.00;99.90
57108;DHT22;42987;52.916;6.542;2023-02-07T10:57:52;2.10;99.90
57108;DHT22;42987;52.916;6.542;2023-02-07T11:00:27;2.10;99.90
57108;DHT22;42987;52.916;6.542;2023-02-07T11:03:13;2.10;99.90
57108;DHT22;42987;52.916;6.542;2023-02-07T11:05:51;2.20;99.90
57108;DHT22;42987;52.916;6.542;2023-02-07T11:08:30;2.30;99.90
57108;DHT22;42987;52.916;6.542;2023-02-07T11:10:59;2.30;99.90
57108;DHT22;42987;52.916;6.542;2023-02-07T11:13:48;2.30;99.90
57108;DHT22;42987;52.916;6.542;2023-02-07T11:16:17;2.40;99.90
57108;DHT22;42987;52.916;6.542;2023-02-07T11:21:23;2.50;99.90
57108;DHT22;42987;52.916;6.542;2023-02-07T11:23:51;2.50;99.90
57108;DHT22;42987;52.916;6.542;2023-02-07T11:26:19;2.60;99.90
57108;DHT22;42987;52.916;6.542;2023-02-07T11:28:51;2.60;99.90
57108;DHT22;42987;52.916;6.542;2023-02-07T11:31:23;2.60;99.90
57108;DHT22;42987;52.916;6.542;2023-02-07T11:33:50;2.60;99.90
57108;DHT22;42987;52.916;6.542;2023-02-07T11:36:23;2.70;99.90
57108;DHT22;42987;52.916;6.542;2023-02-07T11:38:58;2.70;99.90
57108;DHT22;42987;52.916;6.542;2023-02-07T11:41:32;2.80;99.90
57108;DHT22;42987;52.916;6.542;2023-02-07T11:44:13;2.80;99.90
57108;DHT22;42987;52.916;6.542;2023-02-07T11:46:41;2.90;99.90
57108;DHT22;42987;52.916;6.542;2023-02-07T11:49:30;2.90;99.90
57108;DHT22;42987;52.916;6.542;2023-02-07T11:52:03;3.00;99.90
57108;DHT22;42987;52.916;6.542;2023-02-07T11:54:31;3.00;99.90
57108;DHT22;42987;52.916;6.542;2023-02-07T11:57:06;3.10;99.90
57108;DHT22;42987;52.916;6.542;2023-02-07T11:59:32;3.10;99.90
57108;DHT22;42987;52.916;6.542;2023-02-07T12:02:24;3.10;99.90
57108;DHT22;42987;52.916;6.542;2023-02-07T12:04:51;3.20;99.90
57108;DHT22;42987;52.916;6.542;2023-02-07T12:07:26;3.30;99.90
57108;DHT22;42987;52.916;6.542;2023-02-07T12:10:02;3.40;99.90
57108;DHT22;42987;52.916;6.542;2023-02-07T12:12:48;3.40;99.90
57108;DHT22;42987;52.916;6.542;2023-02-07T12:15:27;3.40;99.90
57108;DHT22;42987;52.916;6.542;2023-02-07T12:26:29;3.70;99.90
57108;DHT22;42987;52.916;6.542;2023-02-07T12:34:44;3.70;99.90
57108;DHT22;42987;52.916;6.542;2023-02-07T12:37:35;3.80;99.90
57108;DHT22;42987;52.916;6.542;2023-02-07T12:45:38;3.80;99.90
57108;DHT22;42987;52.916;6.542;2023-02-07T12:51:03;3.90;99.90
57108;DHT22;42987;52.916;6.542;2023-02-07T12:59:13;4.00;99.90
57108;DHT22;42987;52.916;6.542;2023-02-07T13:01:57;4.00;99.90
57108;DHT22;42987;52.916;6.542;2023-02-07T13:23:20;4.10;99.90
57108;DHT22;42987;52.916;6.542;2023-02-07T13:25:49;4.20;99.90
57108;DHT22;42987;52.916;6.542;2023-02-07T13:28:25;4.30;99.90
57108;DHT22;42987;52.916;6.542;2023-02-07T13:30:52;4.20;99.90
57108;DHT22;42987;52.916;6.542;2023-02-07T13:33:39;4.30;99.90
57108;DHT22;42987;52.916;6.542;2023-02-07T13:38:57;4.40;99.90
57108;DHT22;42987;52.916;6.542;2023-02-07T13:41:30;4.40;99.90
57108;DHT22;42987;52.916;6.542;2023-02-07T13:44:21;4.30;99.90
57108;DHT22;42987;52.916;6.542;2023-02-07T13:49:41;4.40;99.90
57108;DHT22;42987;52.916;6.542;2023-02-07T13:52:19;4.30;99.90
57108;DHT22;42987;52.916;6.542;2023-02-07T13:55:01;4.30;99.90
57108;DHT22;42987;52.916;6.542;2023-02-07T14:00:19;4.40;99.90
57108;DHT22;42987;52.916;6.542;2023-02-07T14:02:49;4.40;99.90
57108;DHT22;42987;52.916;6.542;2023-02-07T14:05:40;4.40;99.90
57108;DHT22;42987;52.916;6.542;2023-02-07T14:08:22;4.40;99.90
57108;DHT22;42987;52.916;6.542;2023-02-07T14:10:51;4.40;99.90
57108;DHT22;42987;52.916;6.542;2023-02-07T14:13:29;4.40;99.90
57108;DHT22;42987;52.916;6.542;2023-02-07T14:18:50;4.40;99.90
57108;DHT22;42987;52.916;6.542;2023-02-07T14:31:59;4.30;99.90
57108;DHT22;42987;52.916;6.542;2023-02-07T14:37:45;4.40;99.90
57108;DHT22;42987;52.916;6.542;2023-02-07T14:45:30;4.40;99.90
57108;DHT22;42987;52.916;6.542;2023-02-07T14:47:56;4.20;99.90
57108;DHT22;42987;52.916;6.542;2023-02-07T14:50:25;4.30;99.90
57108;DHT22;42987;52.916;6.542;2023-02-07T14:52:56;4.30;99.90
57108;DHT22;42987;52.916;6.542;2023-02-07T14:55:40;4.30;99.90
57108;DHT22;42987;52.916;6.542;2023-02-07T14:58:22;4.30;99.90
57108;DHT22;42987;52.916;6.542;2023-02-07T15:00:53;4.30;99.90
57108;DHT22;42987;52.916;6.542;2023-02-07T15:03:20;4.30;99.90
57108;DHT22;42987;52.916;6.542;2023-02-07T15:06:03;4.20;99.90
57108;DHT22;42987;52.916;6.542;2023-02-07T15:08:32;4.20;99.90
57108;DHT22;42987;52.916;6.542;2023-02-07T15:11:05;4.20;99.90
57108;DHT22;42987;52.916;6.542;2023-02-07T15:13:36;4.10;99.90
57108;DHT22;42987;52.916;6.542;2023-02-07T15:16:11;4.10;99.90
57108;DHT22;42987;52.916;6.542;2023-02-07T15:21:31;4.10;99.90
57108;DHT22;42987;52.916;6.542;2023-02-07T15:24:27;4.00;99.90
57108;DHT22;42987;52.916;6.542;2023-02-07T15:27:00;4.00;99.90
57108;DHT22;42987;52.916;6.542;2023-02-07T15:29:35;4.00;99.90
57108;DHT22;42987;52.916;6.542;2023-02-07T15:32:21;4.00;99.90
57108;DHT22;42987;52.916;6.542;2023-02-07T15:34:47;3.90;99.90
57108;DHT22;42987;52.916;6.542;2023-02-07T15:37:21;3.90;99.90
57108;DHT22;42987;52.916;6.542;2023-02-07T15:39:51;3.90;99.90
57108;DHT22;42987;52.916;6.542;2023-02-07T15:42:19;3.80;99.90
57108;DHT22;42987;52.916;6.542;2023-02-07T15:44:53;3.80;99.90
57108;DHT22;42987;52.916;6.542;2023-02-07T15:50:21;3.70;99.90
57108;DHT22;42987;52.916;6.542;2023-02-07T15:52:53;3.70;99.90
57108;DHT22;42987;52.916;6.542;2023-02-07T15:57:54;3.50;99.90
57108;DHT22;42987;52.916;6.542;2023-02-07T16:00:23;3.50;99.90
57108;DHT22;42987;52.916;6.542;2023-02-07T16:03:03;3.50;99.90
57108;DHT22;42987;52.916;6.542;2023-02-07T16:05:34;3.40;99.90
57108;DHT22;42987;52.916;6.542;2023-02-07T16:10:52;3.40;99.90
57108;DHT22;42987;52.916;6.542;2023-02-07T16:13:20;3.20;99.90
57108;DHT22;42987;52.916;6.542;2023-02-07T16:15:58;3.20;99.90
57108;DHT22;42987;52.916;6.542;2023-02-07T16:18:37;3.20;99.90
57108;DHT22;42987;52.916;6.542;2023-02-07T16:21:09;3.00;99.90
57108;DHT22;42987;52.916;6.542;2023-02-07T16:23:36;3.00;99.90
57108;DHT22;42987;52.916;6.542;2023-02-07T16:26:01;2.80;99.90
57108;DHT22;42987;52.916;6.542;2023-02-07T16:28:29;2.80;99.90
57108;DHT22;42987;52.916;6.542;2023-02-07T16:30:55;2.70;99.90
57108;DHT22;42987;52.916;6.542;2023-02-07T16:33:21;2.60;99.90
57108;DHT22;42987;52.916;6.542;2023-02-07T16:35:47;2.60;99.90
57108;DHT22;42987;52.916;6.542;2023-02-07T16:38:13;2.40;99.90
57108;DHT22;42987;52.916;6.542;2023-02-07T16:40:39;2.40;99.90
57108;DHT22;42987;52.916;6.542;2023-02-07T16:43:05;2.30;99.90
57108;DHT22;42987;52.916;6.542;2023-02-07T16:45:32;2.30;99.90
57108;DHT22;42987;52.916;6.542;2023-02-07T16:47:59;2.20;99.90
57108;DHT22;42987;52.916;6.542;2023-02-07T16:50:26;2.20;99.90
57108;DHT22;42987;52.916;6.542;2023-02-07T16:52:53;2.20;99.90
57108;DHT22;42987;52.916;6.542;2023-02-07T16:55:23;2.20;99.90
57108;DHT22;42987;52.916;6.542;2023-02-07T16:57:51;2.10;99.90
57108;DHT22;42987;52.916;6.542;2023-02-07T17:00:19;2.10;99.90
57108;DHT22;42987;52.916;6.542;2023-02-07T17:02:48;2.10;99.90
57108;DHT22;42987;52.916;6.542;2023-02-07T17:05:21;2.00;99.90
57108;DHT22;42987;52.916;6.542;2023-02-07T17:07:47;1.90;99.90
57108;DHT22;42987;52.916;6.542;2023-02-07T17:10:29;1.80;99.90
57108;DHT22;42987;52.916;6.542;2023-02-07T17:12:55;1.70;99.90
57108;DHT22;42987;52.916;6.542;2023-02-07T17:15:22;1.60;99.90
57108;DHT22;42987;52.916;6.542;2023-02-07T17:17:48;1.50;99.90
57108;DHT22;42987;52.916;6.542;2023-02-07T17:20:22;1.50;99.90
57108;DHT22;42987;52.916;6.542;2023-02-07T17:22:49;1.40;99.90
57108;DHT22;42987;52.916;6.542;2023-02-07T17:25:16;1.40;99.90
57108;DHT22;42987;52.916;6.542;2023-02-07T17:27:42;1.30;99.90
57108;DHT22;42987;52.916;6.542;2023-02-07T17:30:18;1.30;99.90
57108;DHT22;42987;52.916;6.542;2023-02-07T17:32:45;1.30;99.90
57108;DHT22;42987;52.916;6.542;2023-02-07T17:35:12;1.30;99.90
57108;DHT22;42987;52.916;6.542;2023-02-07T17:37:38;1.30;99.90
57108;DHT22;42987;52.916;6.542;2023-02-07T17:42:40;1.20;99.90
57108;DHT22;42987;52.916;6.542;2023-02-07T17:45:06;1.30;99.90
57108;DHT22;42987;52.916;6.542;2023-02-07T17:47:32;1.30;99.90
57108;DHT22;42987;52.916;6.542;2023-02-07T17:49:57;1.20;99.90
57108;DHT22;42987;52.916;6.542;2023-02-07T17:52:23;1.10;99.90
57108;DHT22;42987;52.916;6.542;2023-02-07T17:54:49;1.10;99.90
57108;DHT22;42987;52.916;6.542;2023-02-07T17:57:15;1.10;99.90
57108;DHT22;42987;52.916;6.542;2023-02-07T17:59:40;1.10;99.90
57108;DHT22;42987;52.916;6.542;2023-02-07T18:02:07;1.00;99.90
57108;DHT22;42987;52.916;6.542;2023-02-07T18:04:34;1.00;99.90
57108;DHT22;42987;52.916;6.542;2023-02-07T18:07:19;1.00;99.90
57108;DHT22;42987;52.916;6.542;2023-02-07T18:09:44;0.90;99.90
57108;DHT22;42987;52.916;6.542;2023-02-07T18:12:10;0.80;99.90
57108;DHT22;42987;52.916;6.542;2023-02-07T18:14:36;0.70;99.90